Time;durP1;ratioP1;P1;durP2;ratioP2;P2;SDS_P1;SDS_P2;PMS_P1;PMS_P2;Temp;Humidity;BMP_temperature;BMP_pressure;BME280_temperature;BME280_humidity;BME280_pressure;Samples;Min_cycle;Max_cycle;Signal;HPM_P1;HPM_P2
2023/10/20 00:00:21;;;;;;;;;;;;;;;13.22;100.00;98423.00;5094506;28;19920;-57
2023/10/20 00:02:46;;;;;;;;;;;;;;;13.22;100.00;98423.00;5095831;28;19951;-57
2023/10/20 00:05:11;;;;;;;;;;;;;;;13.22;100.00;98423.00;5095426;28;19922;-57
2023/10/20 00:07:37;;;;;;;;;;;;;;;13.23;100.00;98424.69;5094963;28;19923;-57
2023/10/20 00:10:03;;;;;;;;;;;;;;;13.23;100.00;98427.28;5095926;28;20279;-57
2023/10/20 00:12:29;;;;;;;;;;;;;;;13.23;100.00;98430.72;5095231;28;20363;-57
2023/10/20 00:14:54;;;;;;;;;;;;;;;13.23;100.00;98422.13;5094762;28;19916;-57
2023/10/20 00:17:19;;;;;;;;;;;;;;;13.24;100.00;98421.25;5095251;28;20429;-57
2023/10/20 00:19:45;;;;;;;;;;;;;;;13.24;100.00;98416.06;5095531;28;19916;-57
2023/10/20 00:22:10;;;;;;;;;;;;;;;13.23;100.00;98407.44;5094238;28;19920;-58
2023/10/20 00:24:36;;;;;;;;;;;;;;;13.24;100.00;98405.72;5095327;28;19923;-57
2023/10/20 00:27:01;;;;;;;;;;;;;;;13.23;100.00;98404.84;5095034;28;19916;-57
2023/10/20 00:29:26;;;;;;;;;;;;;;;13.24;100.00;98395.38;5094227;28;19912;-57
2023/10/20 00:31:51;;;;;;;;;;;;;;;13.23;100.00;98391.91;5095396;28;20426;-58
2023/10/20 00:34:16;;;;;;;;;;;;;;;13.21;100.00;98379.91;5094876;28;19916;-57
2023/10/20 00:36:42;;;;;;;;;;;;;;;13.20;100.00;98376.47;5094325;28;20007;-57
2023/10/20 00:39:07;;;;;;;;;;;;;;;13.21;100.00;98364.38;5095128;28;19916;-57
2023/10/20 00:41:34;;;;;;;;;;;;;;;13.20;100.00;98362.69;5094891;28;19916;-57
2023/10/20 00:44:00;;;;;;;;;;;;;;;13.17;100.00;98351.53;5094317;28;19916;-57
2023/10/20 00:46:25;;;;;;;;;;;;;;;13.16;100.00;98342.06;5094727;28;19961;-57
2023/10/20 00:48:50;;;;;;;;;;;;;;;13.14;100.00;98338.69;5094028;28;20364;-57
2023/10/20 00:51:17;;;;;;;;;;;;;;;13.13;100.00;98331.78;5094618;28;19920;-57
2023/10/20 00:53:43;;;;;;;;;;;;;;;13.13;100.00;98331.78;5094844;28;19919;-57
2023/10/20 00:56:09;;;;;;;;;;;;;;;13.13;100.00;98325.75;5094108;28;19920;-57
2023/10/20 00:58:35;;;;;;;;;;;;;;;13.09;100.00;98319.81;5094905;28;19920;-57
2023/10/20 01:01:02;;;;;;;;;;;;;;;13.10;100.00;98318.91;5094612;28;19920;-57
2023/10/20 01:03:29;;;;;;;;;;;;;;;13.10;100.00;98315.47;5093456;28;19922;-57
2023/10/20 01:05:55;;;;;;;;;;;;;;;13.08;100.00;98297.41;5094543;28;20286;-57
2023/10/20 01:08:20;;;;;;;;;;;;;;;13.07;100.00;98293.13;5094185;28;19916;-57
2023/10/20 01:10:45;;;;;;;;;;;;;;;13.07;100.00;98295.72;5093832;28;20003;-57
2023/10/20 01:13:10;;;;;;;;;;;;;;;13.05;100.00;98294.88;5094264;28;19920;-57
2023/10/20 01:15:37;;;;;;;;;;;;;;;13.05;100.00;98281.94;5094670;28;20383;-57
2023/10/20 01:18:02;;;;;;;;;;;;;;;13.04;100.00;98277.69;5093648;28;19923;-57
2023/10/20 01:20:27;;;;;;;;;;;;;;;13.04;100.00;98285.44;5093997;28;19916;-57
2023/10/20 01:22:52;;;;;;;;;;;;;;;13.04;100.00;98261.31;5094419;28;19920;-57
2023/10/20 01:25:18;;;;;;;;;;;;;;;13.04;100.00;98262.19;5093100;28;19955;-57
2023/10/20 01:27:43;;;;;;;;;;;;;;;13.03;100.00;98252.72;5094362;28;20378;-57
2023/10/20 01:30:10;;;;;;;;;;;;;;;13.02;100.00;98246.66;5094135;28;20003;-57
2023/10/20 01:32:35;;;;;;;;;;;;;;;13.03;100.00;98244.97;5093767;28;19916;-57
2023/10/20 01:35:01;;;;;;;;;;;;;;;13.01;100.00;98250.16;5094022;28;19969;-57
2023/10/20 01:37:26;;;;;;;;;;;;;;;13.02;100.00;98248.41;5093609;28;20398;-58
2023/10/20 01:39:51;;;;;;;;;;;;;;;13.01;100.00;98255.34;5092517;28;20002;-57
2023/10/20 01:42:16;;;;;;;;;;;;;;;13.00;100.00;98253.63;5093749;28;19961;-57
2023/10/20 01:44:42;;;;;;;;;;;;;;;13.00;100.00;98248.47;5094192;28;19998;-57
2023/10/20 01:47:07;;;;;;;;;;;;;;;12.99;100.00;98244.16;5093229;28;20370;-57
2023/10/20 01:49:32;;;;;;;;;;;;;;;12.99;100.00;98240.75;5093690;28;19916;-57
2023/10/20 01:51:57;;;;;;;;;;;;;;;12.99;100.00;98244.16;5093678;28;19973;-57
2023/10/20 01:54:23;;;;;;;;;;;;;;;13.00;100.00;98232.06;5092868;28;20022;-57
2023/10/20 01:56:49;;;;;;;;;;;;;;;13.00;100.00;98237.25;5093896;28;19999;-57
2023/10/20 01:59:15;;;;;;;;;;;;;;;12.98;100.00;98226.94;5092606;28;20328;-57
2023/10/20 02:01:40;;;;;;;;;;;;;;;12.98;100.00;98223.53;5093357;28;19924;-57
2023/10/20 02:04:05;;;;;;;;;;;;;;;12.99;100.00;98214.88;5093709;28;20288;-57
2023/10/20 02:06:30;;;;;;;;;;;;;;;12.98;100.00;98210.59;5092463;28;19912;-57
2023/10/20 02:08:56;;;;;;;;;;;;;;;12.97;100.00;98195.97;5093438;28;19917;-57
2023/10/20 02:11:21;;;;;;;;;;;;;;;12.97;100.00;98195.97;5093361;28;20351;-57
2023/10/20 02:13:46;;;;;;;;;;;;;;;12.95;100.00;98182.22;5092828;28;20012;-57
2023/10/20 02:16:12;;;;;;;;;;;;;;;12.93;100.00;98184.00;5093433;28;19962;-57
2023/10/20 02:18:38;;;;;;;;;;;;;;;12.91;100.00;98181.47;5093625;28;20058;-57
2023/10/20 02:21:03;;;;;;;;;;;;;;;12.90;100.00;98189.22;5092512;28;19976;-58
2023/10/20 02:23:34;;;;;;;;;;;;;;;12.89;100.00;98184.97;5093102;28;20486;-57
2023/10/20 02:26:00;;;;;;;;;;;;;;;12.88;100.00;98178.09;5093402;28;19920;-57
2023/10/20 02:28:26;;;;;;;;;;;;;;;12.87;100.00;98173.78;5092193;28;19923;-58
2023/10/20 02:30:51;;;;;;;;;;;;;;;12.86;100.00;98167.78;5093361;28;19947;-57
2023/10/20 02:33:17;;;;;;;;;;;;;;;12.84;100.00;98162.63;5093115;28;19951;-57
2023/10/20 02:35:42;;;;;;;;;;;;;;;12.83;100.00;98150.63;5092496;28;19982;-57
2023/10/20 02:38:08;;;;;;;;;;;;;;;12.83;100.00;98148.03;5093467;28;20332;-57
2023/10/20 02:40:33;;;;;;;;;;;;;;;12.83;100.00;98154.91;5093223;28;20354;-57
2023/10/20 02:42:58;;;;;;;;;;;;;;;12.82;100.00;98132.53;5092408;28;20011;-57
2023/10/20 02:45:24;;;;;;;;;;;;;;;12.80;100.00;98122.25;5092905;28;19922;-57
2023/10/20 02:47:50;;;;;;;;;;;;;;;12.79;100.00;98125.69;5093087;28;19916;-57
2023/10/20 02:50:17;;;;;;;;;;;;;;;12.79;100.00;98120.53;5092644;28;20368;-57
2023/10/20 02:52:42;;;;;;;;;;;;;;;12.79;100.00;98117.94;5097168;28;20333;-57
2023/10/20 02:55:07;;;;;;;;;;;;;;;12.79;100.00;98111.94;5097330;28;20461;-57
2023/10/20 02:57:33;;;;;;;;;;;;;;;12.79;100.00;98104.19;5096108;28;20423;-57
2023/10/20 02:59:58;;;;;;;;;;;;;;;12.78;100.00;98100.75;5097007;28;19920;-57
2023/10/20 03:02:26;;;;;;;;;;;;;;;12.79;100.00;98093.84;5095761;28;19916;-57
2023/10/20 03:04:53;;;;;;;;;;;;;;;12.77;100.00;98096.47;5096827;28;20006;-57
2023/10/20 03:07:24;;;;;;;;;;;;;;;12.77;100.00;98086.13;5096796;28;19920;-57
2023/10/20 03:09:49;;;;;;;;;;;;;;;12.77;100.00;98075.81;5096257;28;19962;-57
2023/10/20 03:12:14;;;;;;;;;;;;;;;12.76;100.00;98068.94;5096545;28;19916;-57
2023/10/20 03:14:39;;;;;;;;;;;;;;;12.77;100.00;98059.44;5096734;28;20003;-57
2023/10/20 03:17:05;;;;;;;;;;;;;;;12.76;100.00;98061.19;5095864;28;20360;-57
2023/10/20 03:19:30;;;;;;;;;;;;;;;12.77;100.00;98064.59;5096470;28;19923;-57
2023/10/20 03:21:56;;;;;;;;;;;;;;;12.74;100.00;98060.34;5096777;28;19961;-57
2023/10/20 03:24:21;;;;;;;;;;;;;;;12.74;100.00;98070.69;5095827;28;19916;-57
2023/10/20 03:26:46;;;;;;;;;;;;;;;12.74;100.00;98070.69;5096672;28;19923;-58
2023/10/20 03:29:11;;;;;;;;;;;;;;;12.73;100.00;98061.25;5096235;28;19912;-57
2023/10/20 03:31:37;;;;;;;;;;;;;;;12.73;100.00;98057.81;5095691;28;20368;-57
2023/10/20 03:34:03;;;;;;;;;;;;;;;12.72;100.00;98054.38;5096293;28;19916;-57
2023/10/20 03:36:28;;;;;;;;;;;;;;;12.73;100.00;98042.31;5096283;28;20007;-57
2023/10/20 03:38:53;;;;;;;;;;;;;;;12.71;100.00;98029.44;5095732;28;19917;-57
2023/10/20 03:41:18;;;;;;;;;;;;;;;12.70;100.00;98027.72;5096159;28;19916;-57
2023/10/20 03:43:44;;;;;;;;;;;;;;;12.71;100.00;98034.59;5096247;28;20368;-57
2023/10/20 03:46:10;;;;;;;;;;;;;;;12.70;100.00;98026.88;5095232;28;20283;-57
2023/10/20 03:48:36;;;;;;;;;;;;;;;12.71;100.00;98038.94;5095990;28;19917;-57
2023/10/20 03:51:04;;;;;;;;;;;;;;;12.70;100.00;98038.06;5096204;28;19923;-57
2023/10/20 03:53:41;;;;;;;;;;;;;;;12.71;100.00;98044.09;5095081;28;20007;-57
2023/10/20 03:56:09;;;;;;;;;;;;;;;12.70;100.00;98032.88;5095934;28;19916;-57
2023/10/20 03:58:36;;;;;;;;;;;;;;;12.71;100.00;98003.59;5095954;28;19916;-57
2023/10/20 04:01:01;;;;;;;;;;;;;;;12.71;100.00;97998.41;5094999;28;19920;-58
2023/10/20 04:03:27;;;;;;;;;;;;;;;12.71;100.00;98007.91;5094423;28;19923;-58
2023/10/20 04:05:52;;;;;;;;;;;;;;;12.70;100.00;98012.22;5095034;28;20428;-57
2023/10/20 04:08:18;;;;;;;;;;;;;;;12.69;100.00;98000.19;5095558;28;19959;-58
2023/10/20 04:10:44;;;;;;;;;;;;;;;12.69;100.00;98010.50;5095861;28;19956;-58
2023/10/20 04:13:09;;;;;;;;;;;;;;;12.70;100.00;98001.88;5094858;28;19920;-58
2023/10/20 04:15:36;;;;;;;;;;;;;;;12.70;100.00;97990.72;5095589;28;19916;-57
2023/10/20 04:18:03;;;;;;;;;;;;;;;12.70;100.00;97976.03;5095709;28;19920;-57
2023/10/20 04:20:29;;;;;;;;;;;;;;;12.69;100.00;97979.50;5094519;28;19916;-58
2023/10/20 04:22:54;;;;;;;;;;;;;;;12.69;100.00;97974.34;5095584;28;19916;-58
2023/10/20 04:25:21;;;;;;;;;;;;;;;12.68;100.00;97968.34;5095174;28;20427;-58
2023/10/20 04:28:05;;;;;;;;;;;;;;;12.69;100.00;97951.06;5094634;28;19922;-57
2023/10/20 04:54:50;;;;;;;;;;;;;;;12.70;100.00;97892.50;5094850;28;19959;-57
2023/10/20 05:02:39;;;;;;;;;;;;;;;12.69;100.00;97881.31;5093706;28;20321;-57
2023/10/20 05:05:11;;;;;;;;;;;;;;;12.68;100.00;97874.47;5094729;28;19924;-57
2023/10/20 05:07:36;;;;;;;;;;;;;;;12.68;100.00;97870.13;5094619;28;19922;-58
2023/10/20 05:10:01;;;;;;;;;;;;;;;12.69;100.00;97863.22;5093843;28;19919;-57
2023/10/20 05:12:28;;;;;;;;;;;;;;;12.69;100.00;97855.47;5094404;28;19947;-58
2023/10/20 05:14:54;;;;;;;;;;;;;;;12.70;100.00;97851.16;5094505;28;19916;-57
2023/10/20 05:17:20;;;;;;;;;;;;;;;12.69;100.00;97855.47;5093426;28;19966;-58
2023/10/20 05:19:48;;;;;;;;;;;;;;;12.71;100.00;97853.72;5094409;28;19923;-57
2023/10/20 05:22:14;;;;;;;;;;;;;;;12.71;100.00;97850.28;5093841;28;19916;-57
2023/10/20 05:24:39;;;;;;;;;;;;;;;12.71;100.00;97838.19;5093639;28;19920;-57
2023/10/20 05:27:04;;;;;;;;;;;;;;;12.70;100.00;97836.50;5094258;28;20354;-58
2023/10/20 05:29:29;;;;;;;;;;;;;;;12.71;100.00;97832.19;5093852;28;19929;-57
2023/10/20 05:31:55;;;;;;;;;;;;;;;12.71;100.00;97827.88;5093496;28;19916;-57
2023/10/20 05:34:20;;;;;;;;;;;;;;;12.71;100.00;97840.78;5093897;28;20432;-58
2023/10/20 05:36:45;;;;;;;;;;;;;;;12.71;100.00;97840.78;5094001;28;19999;-57
2023/10/20 05:39:13;;;;;;;;;;;;;;;12.71;100.00;97848.53;5093109;28;19920;-58
2023/10/20 05:41:39;;;;;;;;;;;;;;;12.72;100.00;97845.06;5094023;28;19961;-57
2023/10/20 05:44:06;;;;;;;;;;;;;;;12.72;100.00;97855.41;5093995;28;19916;-57
2023/10/20 05:46:31;;;;;;;;;;;;;;;12.73;100.00;97851.94;5093327;28;19948;-58
2023/10/20 05:48:56;;;;;;;;;;;;;;;12.73;100.00;97839.03;5094061;28;19923;-58
2023/10/20 05:51:21;;;;;;;;;;;;;;;12.74;100.00;97832.09;5092789;28;19920;-58
2023/10/20 05:53:47;;;;;;;;;;;;;;;12.73;100.00;97841.59;5093948;28;20003;-58
2023/10/20 05:56:12;;;;;;;;;;;;;;;12.76;100.00;97835.50;5093761;28;19963;-58
2023/10/20 05:58:37;;;;;;;;;;;;;;;12.75;100.00;97828.63;5093060;28;19920;-57
2023/10/20 06:01:03;;;;;;;;;;;;;;;12.76;100.00;97830.34;5093488;28;20328;-57
2023/10/20 06:03:29;;;;;;;;;;;;;;;12.76;100.00;97826.00;5093227;28;20371;-58
2023/10/20 06:05:57;;;;;;;;;;;;;;;12.75;100.00;97824.31;5093015;28;19916;-57
2023/10/20 06:08:22;;;;;;;;;;;;;;;12.75;100.00;97819.13;5093405;28;19924;-57
2023/10/20 06:10:47;;;;;;;;;;;;;;;12.76;100.00;97817.41;5093682;28;19916;-58
2023/10/20 06:13:13;;;;;;;;;;;;;;;12.77;100.00;97811.34;5092508;28;19924;-58
2023/10/20 06:15:39;;;;;;;;;;;;;;;12.76;100.00;97804.50;5093470;28;19939;-58
2023/10/20 06:18:04;;;;;;;;;;;;;;;12.76;100.00;97813.09;5093551;28;19985;-58
2023/10/20 06:20:30;;;;;;;;;;;;;;;12.76;100.00;97825.16;5092228;28;19924;-58
2023/10/20 06:22:55;;;;;;;;;;;;;;;12.77;100.00;97829.41;5093417;28;19923;-58
2023/10/20 06:25:20;;;;;;;;;;;;;;;12.77;100.00;97827.69;5092456;28;20318;-57
2023/10/20 06:27:45;;;;;;;;;;;;;;;12.79;100.00;97819.91;5092604;28;20379;-58
2023/10/20 06:30:14;;;;;;;;;;;;;;;12.77;100.00;97799.28;5093025;28;20011;-57
2023/10/20 06:32:43;;;;;;;;;;;;;;;12.78;100.00;97792.34;5093118;28;20379;-58
2023/10/20 06:35:16;;;;;;;;;;;;;;;12.78;100.00;97806.16;5092286;28;19939;-57
2023/10/20 06:38:11;;;;;;;;;;;;;;;12.77;100.00;97807.03;5093118;28;20438;-58
2023/10/20 06:40:36;;;;;;;;;;;;;;;12.79;100.00;97814.72;5092590;28;19951;-58
2023/10/20 06:43:02;;;;;;;;;;;;;;;12.80;100.00;97813.84;5093050;28;19963;-57
2023/10/20 06:45:27;;;;;;;;;;;;;;;12.80;100.00;97817.28;5092887;28;20405;-58
2023/10/20 06:47:52;;;;;;;;;;;;;;;12.80;100.00;97813.84;5092351;28;19916;-58
2023/10/20 06:50:17;;;;;;;;;;;;;;;12.80;100.00;97806.94;5092981;28;20347;-58
2023/10/20 06:52:42;;;;;;;;;;;;;;;12.81;100.00;97800.88;5093296;28;19920;-58
2023/10/20 06:55:09;;;;;;;;;;;;;;;12.81;100.00;97790.53;5092237;28;20354;-58
2023/10/20 06:57:34;;;;;;;;;;;;;;;12.80;100.00;97796.59;5092722;28;19977;-57
2023/10/20 06:59:59;;;;;;;;;;;;;;;12.81;100.00;97793.13;5092773;28;19920;-57
2023/10/20 07:02:25;;;;;;;;;;;;;;;12.80;100.00;97788.84;5091958;28;20010;-58
2023/10/20 07:04:50;;;;;;;;;;;;;;;12.80;100.00;97786.25;5092971;28;20054;-57
2023/10/20 07:07:17;;;;;;;;;;;;;;;12.81;100.00;97785.38;5092846;28;19920;-58
2023/10/20 07:09:44;;;;;;;;;;;;;;;12.80;100.00;97788.84;5092253;28;19997;-57
2023/10/20 07:12:09;;;;;;;;;;;;;;;12.80;100.00;97781.09;5092808;28;19998;-58
2023/10/20 07:14:34;;;;;;;;;;;;;;;12.80;100.00;97785.41;5092870;28;19951;-57
2023/10/20 07:17:03;;;;;;;;;;;;;;;12.79;100.00;97794.91;5092016;28;19916;-58
2023/10/20 07:19:29;;;;;;;;;;;;;;;12.78;100.00;97782.88;5092725;28;19916;-57
2023/10/20 07:21:55;;;;;;;;;;;;;;;12.76;100.00;97789.81;5092689;28;19923;-58
2023/10/20 07:24:20;;;;;;;;;;;;;;;12.74;100.00;97791.59;5091966;28;19920;-58
2023/10/20 07:26:45;;;;;;;;;;;;;;;12.73;100.00;97782.16;5092972;28;19942;-58
2023/10/20 07:29:12;;;;;;;;;;;;;;;12.72;100.00;97790.81;5092370;28;19920;-58
2023/10/20 07:31:39;;;;;;;;;;;;;;;12.70;100.00;97782.25;5092157;28;19916;-58
2023/10/20 07:34:09;;;;;;;;;;;;;;;12.67;100.00;97775.41;5092682;28;20275;-58
2023/10/20 07:36:34;;;;;;;;;;;;;;;12.64;100.00;97778.09;5092646;28;19916;-58
2023/10/20 07:38:59;;;;;;;;;;;;;;;12.63;100.00;97775.56;5095219;28;20050;-57
2023/10/20 07:41:24;;;;;;;;;;;;;;;12.61;100.00;97779.91;5095986;28;19951;-58
2023/10/20 07:43:50;;;;;;;;;;;;;;;12.59;100.00;97776.53;5095434;28;20412;-58
2023/10/20 07:46:16;;;;;;;;;;;;;;;12.57;100.00;97770.56;5096002;28;19923;-57
2023/10/20 07:48:41;;;;;;;;;;;;;;;12.55;100.00;97764.59;5096059;28;20282;-58
2023/10/20 07:51:07;;;;;;;;;;;;;;;12.54;100.00;97768.06;5095432;28;19922;-58
2023/10/20 07:53:32;;;;;;;;;;;;;;;12.50;100.00;97768.16;5095790;28;19920;-58
2023/10/20 07:55:57;;;;;;;;;;;;;;;12.50;100.00;97765.56;5096102;28;20416;-58
2023/10/20 07:58:22;;;;;;;;;;;;;;;12.48;100.00;97763.91;5094830;28;19916;-58
2023/10/20 08:00:48;;;;;;;;;;;;;;;12.46;100.00;97766.53;5095749;28;19955;-58
2023/10/20 08:03:13;;;;;;;;;;;;;;;12.46;100.00;97756.22;5095637;28;19916;-58
2023/10/20 08:05:39;;;;;;;;;;;;;;;12.45;100.00;97746.78;5094926;28;20295;-58
2023/10/20 08:08:04;;;;;;;;;;;;;;;12.42;100.00;97746.00;5095886;28;20379;-58
2023/10/20 08:10:30;;;;;;;;;;;;;;;12.39;100.00;97746.94;5095643;28;19966;-58
2023/10/20 08:12:55;;;;;;;;;;;;;;;12.38;100.00;97742.66;5094897;28;20333;-57
2023/10/20 08:15:20;;;;;;;;;;;;;;;12.36;100.00;97744.44;5095513;28;19916;-57
2023/10/20 08:17:48;;;;;;;;;;;;;;;12.34;100.00;97751.38;5095690;28;19916;-58
2023/10/20 08:20:13;;;;;;;;;;;;;;;12.33;100.00;97754.84;5094617;28;19939;-57
2023/10/20 08:22:38;;;;;;;;;;;;;;;12.31;100.00;97748.88;5095567;28;20249;-58
2023/10/20 08:25:04;;;;;;;;;;;;;;;12.28;100.00;97754.97;5095526;28;19920;-58
2023/10/20 08:27:29;;;;;;;;;;;;;;;12.25;100.00;97759.38;5094294;28;20359;-58
2023/10/20 08:29:57;;;;;;;;;;;;;;;12.22;100.00;97742.22;5095322;28;19916;-58
2023/10/20 08:32:23;;;;;;;;;;;;;;;12.19;100.00;97744.91;5095185;28;19923;-57
2023/10/20 08:34:48;;;;;;;;;;;;;;;12.16;100.00;97758.75;5094509;28;19916;-58
2023/10/20 08:37:14;;;;;;;;;;;;;;;12.14;100.00;97760.50;5094798;28;19922;-58
2023/10/20 08:39:39;;;;;;;;;;;;;;;12.09;100.00;97759.78;5095072;28;20473;-58
2023/10/20 08:42:14;;;;;;;;;;;;;;;12.05;100.00;97753.03;5094088;28;19923;-58
2023/10/20 08:44:39;;;;;;;;;;;;;;;12.02;100.00;97750.53;5095225;28;19962;-58
2023/10/20 08:47:07;;;;;;;;;;;;;;;12.00;100.00;97741.97;5094182;28;19916;-58
2023/10/20 08:49:32;;;;;;;;;;;;;;;11.99;100.00;97735.09;5094359;28;20272;-58
2023/10/20 08:52:02;;;;;;;;;;;;;;;11.98;100.00;97741.16;5095007;28;20420;-58
2023/10/20 08:54:27;;;;;;;;;;;;;;;11.95;100.00;97741.19;5093788;28;20328;-58
2023/10/20 08:56:52;;;;;;;;;;;;;;;11.93;100.00;97745.53;5094804;28;20481;-58
2023/10/20 08:59:19;;;;;;;;;;;;;;;11.91;100.00;97749.91;5094711;28;19923;-58
2023/10/20 09:01:46;;;;;;;;;;;;;;;11.89;100.00;97752.53;5093655;28;20394;-58
2023/10/20 09:04:20;;;;;;;;;;;;;;;11.87;100.00;97751.72;5094425;28;19920;-58
2023/10/20 09:06:45;;;;;;;;;;;;;;;11.83;100.00;97738.03;5094689;28;19939;-58
2023/10/20 09:09:10;;;;;;;;;;;;;;;11.80;100.00;97745.00;5093507;28;20355;-58
2023/10/20 09:11:35;;;;;;;;;;;;;;;11.76;100.00;97746.84;5094770;28;19923;-58
2023/10/20 09:14:02;;;;;;;;;;;;;;;11.71;100.00;97746.13;5094449;28;20431;-58
2023/10/20 09:16:27;;;;;;;;;;;;;;;11.69;100.00;97743.56;5093550;28;19916;-58
2023/10/20 09:18:53;;;;;;;;;;;;;;;11.67;100.00;97744.47;5094534;28;19916;-58
2023/10/20 09:21:19;;;;;;;;;;;;;;;11.64;100.00;97739.41;5093968;28;20318;-58
2023/10/20 09:23:55;;;;;;;;;;;;;;;11.63;100.00;97740.28;5093533;28;20017;-57
2023/10/20 09:26:20;;;;;;;;;;;;;;;11.59;100.00;97736.09;5093823;28;20446;-58
2023/10/20 09:28:50;;;;;;;;;;;;;;;11.58;100.00;97727.53;5094353;28;19959;-57
2023/10/20 09:31:18;;;;;;;;;;;;;;;11.56;100.00;97725.84;5093270;28;19916;-58
2023/10/20 09:33:43;;;;;;;;;;;;;;;11.53;100.00;97727.63;5094041;28;20287;-58
2023/10/20 09:36:11;;;;;;;;;;;;;;;11.52;100.00;97733.66;5094088;28;19916;-57
2023/10/20 09:38:37;;;;;;;;;;;;;;;11.53;100.00;97737.94;5093644;28;19947;-57
2023/10/20 09:41:07;;;;;;;;;;;;;;;11.52;100.00;97736.22;5094219;28;19951;-58
2023/10/20 09:43:36;;;;;;;;;;;;;;;11.56;100.00;97731.03;5091624;28;19916;-58
2023/10/20 09:46:19;;;;;;;;;;;;;;;11.55;100.00;97729.31;5094003;28;19920;-58
2023/10/20 09:48:45;;;;;;;;;;;;;;;11.54;100.00;97728.44;5093905;28;19952;-58
2023/10/20 09:51:11;;;;;;;;;;;;;;;11.52;100.00;97737.97;5092703;28;20372;-58
2023/10/20 09:53:37;;;;;;;;;;;;;;;11.49;100.00;97726.00;5093967;28;19923;-58
2023/10/20 09:56:02;;;;;;;;;;;;;;;11.48;100.00;97716.56;5093987;28;19916;-58
2023/10/20 09:58:33;;;;;;;;;;;;;;;11.46;100.00;97720.06;5092968;28;20279;-58
2023/10/20 10:00:59;;;;;;;;;;;;;;;11.42;100.00;97721.88;5092979;28;19924;-58
2023/10/20 10:03:37;;;;;;;;;;;;;;;11.42;100.00;97728.75;5093332;28;20276;-57
2023/10/20 10:06:07;;;;;;;;;;;;;;;11.42;100.00;97729.59;5093097;28;19991;-58
2023/10/20 10:08:32;;;;;;;;;;;;;;;11.43;100.00;97726.16;5093189;28;19916;-58
2023/10/20 10:10:57;;;;;;;;;;;;;;;11.43;100.00;97722.72;5093674;28;19923;-57
2023/10/20 10:13:32;;;;;;;;;;;;;;;11.44;100.00;97727.84;5092468;28;19916;-58
2023/10/20 10:15:58;;;;;;;;;;;;;;;11.46;100.00;97720.91;5093476;28;19916;-58
2023/10/20 10:18:29;;;;;;;;;;;;;;;11.47;100.00;97722.59;5093238;28;19923;-58
2023/10/20 10:21:01;;;;;;;;;;;;;;;11.48;100.00;97719.16;5093574;28;19916;-58
2023/10/20 10:23:29;;;;;;;;;;;;;;;11.51;100.00;97706.16;5093223;28;20010;-58
2023/10/20 10:25:54;;;;;;;;;;;;;;;11.53;100.00;97701.81;5092658;28;19922;-57
2023/10/20 10:28:20;;;;;;;;;;;;;;;11.57;100.00;97701.75;5093086;28;19920;-58
2023/10/20 10:30:49;;;;;;;;;;;;;;;11.60;100.00;97706.84;5093507;28;20360;-58
2023/10/20 10:33:19;;;;;;;;;;;;;;;11.59;100.00;97705.97;5092128;28;19916;-58
2023/10/20 10:35:44;;;;;;;;;;;;;;;11.61;100.00;97698.22;5093432;28;19966;-58
2023/10/20 10:38:20;;;;;;;;;;;;;;;11.61;100.00;97690.47;5093055;28;19920;-58
2023/10/20 10:40:45;;;;;;;;;;;;;;;11.64;100.00;97685.22;5092447;28;19916;-58
2023/10/20 10:43:19;;;;;;;;;;;;;;;11.68;100.00;97686.84;5092774;28;19920;-57
2023/10/20 10:45:44;;;;;;;;;;;;;;;11.67;100.00;97683.44;5093353;28;20007;-58
2023/10/20 10:48:13;;;;;;;;;;;;;;;11.70;100.00;97679.91;5092492;28;20323;-58
2023/10/20 10:50:42;;;;;;;;;;;;;;;11.72;100.00;97672.97;5093133;28;20345;-58
2023/10/20 10:53:08;;;;;;;;;;;;;;;11.72;100.00;97667.81;5093144;28;19924;-58
2023/10/20 10:55:37;;;;;;;;;;;;;;;11.72;100.00;97656.66;5091909;28;19916;-58
2023/10/20 10:58:02;;;;;;;;;;;;;;;11.72;100.00;97657.50;5093215;28;19916;-58
2023/10/20 11:00:28;;;;;;;;;;;;;;;11.72;100.00;97654.91;5092735;28;20082;-58
2023/10/20 11:02:53;;;;;;;;;;;;;;;11.72;100.00;97647.16;5092266;28;20324;-58
2023/10/20 11:05:19;;;;;;;;;;;;;;;11.74;100.00;97648.00;5092716;28;19923;-58
2023/10/20 11:08:03;;;;;;;;;;;;;;;11.77;100.00;97652.22;5092174;28;19916;-57
2023/10/20 11:10:29;;;;;;;;;;;;;;;11.77;100.00;97642.75;5092623;28;20272;-58
2023/10/20 11:12:58;;;;;;;;;;;;;;;11.78;100.00;97641.84;5096380;28;19924;-57
2023/10/20 11:15:30;;;;;;;;;;;;;;;11.80;100.00;97642.66;5095836;28;20069;-57
2023/10/20 11:17:57;;;;;;;;;;;;;;;11.81;100.00;97634.06;5096855;28;19923;-57
2023/10/20 11:20:23;;;;;;;;;;;;;;;11.81;100.00;97626.31;5096269;28;20375;-57
2023/10/20 11:22:52;;;;;;;;;;;;;;;11.82;100.00;97620.22;5095687;28;19916;-58
2023/10/20 11:25:17;;;;;;;;;;;;;;;11.84;100.00;97613.31;5096557;28;19961;-57
2023/10/20 11:27:43;;;;;;;;;;;;;;;11.85;100.00;97601.25;5096788;28;20015;-57
2023/10/20 11:30:09;;;;;;;;;;;;;;;11.88;100.00;97608.06;5096078;28;20264;-58
2023/10/20 11:32:35;;;;;;;;;;;;;;;11.89;100.00;97617.50;5096596;28;19916;-58
2023/10/20 11:35:00;;;;;;;;;;;;;;;11.90;100.00;97612.28;5096293;28;19985;-58
2023/10/20 11:37:25;;;;;;;;;;;;;;;11.92;100.00;97614.84;5095447;28;19916;-57
2023/10/20 11:39:50;;;;;;;;;;;;;;;11.93;100.00;97614.78;5096619;28;19924;-58
2023/10/20 11:42:15;;;;;;;;;;;;;;;11.93;100.00;97611.34;5095944;28;19916;-58
2023/10/20 11:44:40;;;;;;;;;;;;;;;11.94;100.00;97613.91;5095475;28;20003;-58
2023/10/20 11:47:06;;;;;;;;;;;;;;;11.95;100.00;97604.44;5096146;28;19916;-57
2023/10/20 11:49:31;;;;;;;;;;;;;;;11.96;100.00;97601.00;5095864;28;19916;-57
2023/10/20 11:51:56;;;;;;;;;;;;;;;11.99;100.00;97588.00;5095270;28;19920;-57
2023/10/20 11:54:22;;;;;;;;;;;;;;;11.97;100.00;97572.56;5095890;28;20003;-57
2023/10/20 11:56:47;;;;;;;;;;;;;;;11.98;100.00;97573.38;5095917;28;20004;-57
2023/10/20 11:59:12;;;;;;;;;;;;;;;11.99;100.00;97567.34;5095010;28;20375;-58
2023/10/20 12:01:38;;;;;;;;;;;;;;;12.02;100.00;97575.00;5095681;28;20268;-57
2023/10/20 12:04:06;;;;;;;;;;;;;;;12.04;100.00;97570.63;5094940;28;19917;-58
2023/10/20 12:06:31;;;;;;;;;;;;;;;12.06;100.00;97568.00;5095493;28;19920;-58
2023/10/20 12:08:56;;;;;;;;;;;;;;;12.05;100.00;97562.00;5095773;28;19923;-58
2023/10/20 12:11:22;;;;;;;;;;;;;;;12.04;100.00;97568.06;5094619;28;19973;-58
2023/10/20 12:13:48;;;;;;;;;;;;;;;12.03;100.00;97561.19;5095816;28;19916;-58
2023/10/20 12:16:17;;;;;;;;;;;;;;;12.01;100.00;97558.66;5095504;28;19955;-57
2023/10/20 12:18:43;;;;;;;;;;;;;;;12.02;100.00;97554.38;5094686;28;20398;-57
2023/10/20 12:21:08;;;;;;;;;;;;;;;12.02;100.00;97554.38;5095515;28;19916;-58
2023/10/20 12:23:34;;;;;;;;;;;;;;;12.06;100.00;97555.97;5094438;28;19920;-58
2023/10/20 12:25:59;;;;;;;;;;;;;;;12.07;100.00;97554.22;5094703;28;19957;-56
2023/10/20 12:28:26;;;;;;;;;;;;;;;12.07;100.00;97557.66;5095353;28;20379;-57
2023/10/20 12:30:51;;;;;;;;;;;;;;;12.06;100.00;97555.09;5095452;28;19920;-57
2023/10/20 12:33:16;;;;;;;;;;;;;;;12.06;100.00;97560.25;5094359;28;19916;-57
2023/10/20 12:35:42;;;;;;;;;;;;;;;12.06;100.00;97558.53;5095111;28;19926;-57
2023/10/20 12:38:07;;;;;;;;;;;;;;;12.05;100.00;97556.84;5095353;28;19916;-57
2023/10/20 12:40:34;;;;;;;;;;;;;;;12.05;100.00;97561.19;5093977;28;19923;-57
2023/10/20 12:42:59;;;;;;;;;;;;;;;12.03;100.00;97556.03;5095142;28;19923;-57
2023/10/20 12:45:24;;;;;;;;;;;;;;;12.02;100.00;97559.53;5094845;28;19916;-57
2023/10/20 12:47:49;;;;;;;;;;;;;;;12.02;100.00;97560.38;5094250;28;19916;-57
2023/10/20 12:50:15;;;;;;;;;;;;;;;12.02;100.00;97556.94;5094555;28;19923;-56
2023/10/20 12:52:40;;;;;;;;;;;;;;;12.04;100.00;97562.91;5095040;28;19927;-57
2023/10/20 12:55:05;;;;;;;;;;;;;;;12.01;100.00;97565.56;5094224;28;19916;-57
2023/10/20 12:57:31;;;;;;;;;;;;;;;11.99;100.00;97562.19;5094398;28;20322;-57
2023/10/20 12:59:56;;;;;;;;;;;;;;;11.93;100.00;97564.91;5094679;28;19920;-56